createdAt,value
2023-05-12T00:00:15.099Z,96935.97
2023-05-12T00:01:17.033Z,96934.75
2023-05-12T00:02:18.645Z,96927.34
2023-05-12T00:03:20.340Z,96930.50
2023-05-12T00:04:22.078Z,96934.06
2023-05-12T00:05:23.869Z,96934.06
2023-05-12T00:06:26.113Z,96928.94
2023-05-12T00:07:27.742Z,96934.31
2023-05-12T00:08:29.832Z,96928.28
2023-05-12T00:09:31.410Z,96931.19
2023-05-12T00:10:33.018Z,96924.47
2023-05-12T00:11:34.640Z,96933.63
2023-05-12T00:12:36.262Z,96928.25
2023-05-12T00:13:37.892Z,96927.81
2023-05-12T00:14:39.513Z,96932.06
2023-05-12T00:15:41.665Z,96929.50
2023-05-12T00:16:43.513Z,96929.84
2023-05-12T00:17:45.217Z,96926.38
2023-05-12T00:18:46.902Z,96926.03
2023-05-12T00:19:48.596Z,96928.50
2023-05-12T00:20:50.171Z,96928.16
2023-05-12T00:21:51.850Z,96924.03
2023-05-12T00:22:53.421Z,96921.75
2023-05-12T00:23:55.011Z,96928.72
2023-05-12T00:24:56.569Z,96923.09
2023-05-12T00:25:58.090Z,96927.38
2023-05-12T00:26:59.616Z,96929.38
2023-05-12T00:28:01.187Z,96924.47
2023-05-12T00:29:03.002Z,96924.00
2023-05-12T00:30:05.556Z,96929.38
2023-05-12T00:31:07.144Z,96928.63
2023-05-12T00:32:08.746Z,96923.91
2023-05-12T00:33:10.399Z,96929.94
2023-05-12T00:34:12.033Z,96928.94
2023-05-12T00:35:13.590Z,96924.69
2023-05-12T00:36:15.168Z,96926.16
2023-05-12T00:37:16.936Z,96921.91
2023-05-12T00:38:18.495Z,96928.47
2023-05-12T00:39:21.414Z,96925.38
2023-05-12T00:40:23.052Z,96925.00
2023-05-12T00:41:24.601Z,96931.63
2023-05-12T00:42:26.282Z,96928.47
2023-05-12T00:43:27.854Z,96926.25
2023-05-12T00:44:29.673Z,96931.31
2023-05-12T00:45:31.501Z,96929.03
2023-05-12T00:46:33.473Z,96929.53
2023-05-12T00:47:35.108Z,96930.31
2023-05-12T00:48:37.006Z,96931.53
2023-05-12T00:49:42.594Z,96928.84
2023-05-12T00:50:44.610Z,96929.63
2023-05-12T00:51:46.182Z,96929.63
2023-05-12T00:52:49.048Z,96930.31
2023-05-12T00:53:50.916Z,96927.63
2023-05-12T00:54:52.701Z,96934.13
2023-05-12T00:55:55.653Z,96935.69
2023-05-12T00:56:57.628Z,96934.13
2023-05-12T00:57:59.562Z,96931.44
2023-05-12T00:59:01.364Z,96927.94
2023-05-12T01:00:03.043Z,96933.84
2023-05-12T01:01:04.677Z,96933.28
2023-05-12T01:02:07.288Z,96934.53
2023-05-12T01:03:09.268Z,96938.56
2023-05-12T01:04:11.221Z,96935.09
2023-05-12T01:05:13.041Z,96935.78
2023-05-12T01:06:29.036Z,96932.72
2023-05-12T01:07:32.845Z,96950.22
2023-05-12T01:08:35.162Z,96940.00
2023-05-12T01:09:36.829Z,96942.13
2023-05-12T01:10:44.250Z,96944.34
2023-05-12T01:11:45.868Z,96945.03
2023-05-12T01:12:48.289Z,96941.88
2023-05-12T01:13:49.905Z,96946.94
2023-05-12T01:14:53.895Z,96942.34
2023-05-12T01:15:58.946Z,96948.72
2023-05-12T01:17:03.636Z,96950.16
2023-05-12T01:18:06.677Z,96943.78
2023-05-12T01:19:15.060Z,96943.69
2023-05-12T01:20:21.704Z,96945.66
2023-05-12T01:21:23.497Z,96950.00
2023-05-12T01:22:27.820Z,96949.22
2023-05-12T01:23:36.531Z,96957.47
2023-05-12T01:24:48.261Z,96953.69
2023-05-12T01:25:50.921Z,96954.00
2023-05-12T01:26:52.532Z,96948.31
2023-05-12T01:27:54.238Z,96951.06
2023-05-12T01:28:56.693Z,96954.53
2023-05-12T01:30:00.787Z,96958.22
2023-05-12T01:31:03.989Z,96950.47
2023-05-12T01:32:06.552Z,96949.84
2023-05-12T01:33:09.186Z,96957.00
2023-05-12T01:34:16.494Z,96950.31
2023-05-12T01:35:18.534Z,96951.88
2023-05-12T01:36:20.108Z,96947.97
2023-05-12T01:37:21.836Z,96952.88
2023-05-12T01:38:23.416Z,96950.88
2023-05-12T01:39:25.004Z,96948.63
2023-05-12T01:40:26.728Z,96944.84
2023-05-12T01:41:28.262Z,96940.25
2023-05-12T01:42:29.823Z,96947.06
2023-05-12T01:43:31.425Z,96937.09
2023-05-12T01:44:33.167Z,96936.34
2023-05-12T01:45:34.911Z,96941.56
2023-05-12T01:46:36.691Z,96942.47
2023-05-12T01:47:38.375Z,96940.13
2023-05-12T01:48:40.006Z,96950.72
2023-05-12T01:49:41.720Z,96945.03
2023-05-12T01:50:43.267Z,96943.25
2023-05-12T01:51:44.823Z,96946.59
2023-05-12T01:52:46.382Z,96940.13
2023-05-12T01:53:48.008Z,96942.47
2023-05-12T01:54:51.373Z,96940.94
2023-05-12T01:55:52.941Z,96937.91
2023-05-12T01:56:54.473Z,96939.47
2023-05-12T01:57:56.097Z,96937.69
2023-05-12T01:58:57.676Z,96941.81
2023-05-12T02:00:00.032Z,96937.25
2023-05-12T02:01:01.593Z,96934.09
2023-05-12T02:02:03.380Z,96938.81
2023-05-12T02:03:05.178Z,96940.38
2023-05-12T02:04:08.898Z,96935.28
2023-05-12T02:05:10.672Z,96939.53
2023-05-12T02:06:12.315Z,96936.16
2023-05-12T02:07:15.770Z,96939.63
2023-05-12T02:08:17.413Z,96942.44
2023-05-12T02:09:19.060Z,96943.09
2023-05-12T02:10:20.927Z,96938.66
2023-05-12T02:11:22.846Z,96937.06
2023-05-12T02:12:24.426Z,96942.22
2023-05-12T02:13:26.054Z,96943.47
2023-05-12T02:14:27.726Z,96940.00
2023-05-12T02:15:29.419Z,96942.69
2023-05-12T02:16:31.010Z,96944.69
2023-05-12T02:17:32.597Z,96943.47
2023-05-12T02:18:34.191Z,96948.06
2023-05-12T02:19:36.149Z,96947.16
2023-05-12T02:20:37.658Z,96950.28
2023-05-12T02:21:39.229Z,96951.06
2023-05-12T02:22:40.800Z,96951.22
2023-05-12T02:23:42.430Z,96951.44
2023-05-12T02:24:43.954Z,96952.91
2023-05-12T02:25:45.542Z,96955.00
2023-05-12T02:26:47.106Z,96952.00
2023-05-12T02:27:48.736Z,96954.09
2023-05-12T02:28:50.318Z,96950.69
2023-05-12T02:29:51.881Z,96957.19
2023-05-12T02:30:54.359Z,96949.78
2023-05-12T02:31:55.990Z,96952.47
2023-05-12T02:32:57.585Z,96949.88
2023-05-12T02:33:59.227Z,96948.38
2023-05-12T02:35:01.189Z,96948.13
2023-05-12T02:36:03.075Z,96959.50
2023-05-12T02:37:04.814Z,96951.25
2023-05-12T02:38:06.376Z,96949.97
2023-05-12T02:39:08.092Z,96948.81
2023-05-12T02:40:10.014Z,96953.75
2023-05-12T02:41:11.695Z,96945.03
2023-05-12T02:42:13.253Z,96949.97
2023-05-12T02:43:14.885Z,96958.44
2023-05-12T02:44:17.915Z,96951.50
2023-05-12T02:45:19.427Z,96952.75
2023-05-12T02:46:21.048Z,96950.41
2023-05-12T02:47:22.683Z,96955.56
2023-05-12T02:48:24.303Z,96951.31
2023-05-12T02:49:25.847Z,96955.66
2023-05-12T02:50:27.416Z,96955.03
2023-05-12T02:51:29.130Z,96965.88
2023-05-12T02:52:30.873Z,96959.88
2023-05-12T02:53:32.426Z,96961.41
2023-05-12T02:54:33.986Z,96961.41
2023-05-12T02:55:35.629Z,96967.91
2023-05-12T02:56:37.170Z,96966.94
2023-05-12T02:57:38.846Z,96971.03
2023-05-12T02:58:40.403Z,96963.66
2023-05-12T02:59:42.140Z,96965.44
2023-05-12T03:00:43.748Z,96960.28
2023-05-12T03:01:45.422Z,96957.00
2023-05-12T03:02:47.063Z,96960.13
2023-05-12T03:03:48.798Z,96965.84
2023-05-12T03:04:50.520Z,96960.91
2023-05-12T03:05:53.487Z,96970.06
2023-05-12T03:06:55.094Z,96969.44
2023-05-12T03:07:56.855Z,96966.53
2023-05-12T03:08:59.778Z,96968.75
2023-05-12T03:10:04.414Z,96972.53
2023-05-12T03:11:06.115Z,96976.03
2023-05-12T03:12:08.628Z,96970.34
2023-05-12T03:13:10.146Z,96976.59
2023-05-12T03:14:11.720Z,96975.69
2023-05-12T03:15:13.332Z,96971.44
2023-05-12T03:16:18.905Z,96981.84
2023-05-12T03:17:21.511Z,96977.84
2023-05-12T03:18:23.102Z,96979.22
2023-05-12T03:19:24.836Z,96971.19
2023-05-12T03:20:26.358Z,96973.88
2023-05-12T03:21:28.592Z,96975.41
2023-05-12T03:22:30.674Z,96969.03
2023-05-12T03:23:32.314Z,96975.28
2023-05-12T03:24:34.463Z,96974.50
2023-05-12T03:25:36.138Z,96974.63
2023-05-12T03:26:37.662Z,96974.88
2023-05-12T03:27:40.041Z,96976.69
2023-05-12T03:28:41.654Z,96976.63
2023-05-12T03:29:43.269Z,96974.94
2023-05-12T03:30:44.876Z,96981.91
2023-05-12T03:31:46.662Z,96975.63
2023-05-12T03:32:48.417Z,96985.00
2023-05-12T03:33:50.063Z,96978.41
2023-05-12T03:34:51.625Z,96985.88
2023-05-12T03:35:53.276Z,96976.56
2023-05-12T03:36:54.805Z,96978.69
2023-05-12T03:37:56.579Z,96988.09
2023-05-12T03:38:58.142Z,96978.25
2023-05-12T03:39:59.669Z,96978.72
2023-05-12T03:41:07.643Z,96979.06
2023-05-12T03:42:09.190Z,96976.94
2023-05-12T03:43:10.681Z,96978.63
2023-05-12T03:44:12.413Z,96977.41
2023-05-12T03:45:13.992Z,96975.47
2023-05-12T03:46:15.781Z,96980.25
2023-05-12T03:47:17.476Z,96978.94
2023-05-12T03:48:19.097Z,96982.72
2023-05-12T03:49:20.652Z,96984.72
2023-05-12T03:50:22.333Z,96988.22
2023-05-12T03:51:24.322Z,96992.28
2023-05-12T03:52:25.927Z,96982.25
2023-05-12T03:53:27.455Z,96986.78
2023-05-12T03:54:28.980Z,96991.72
2023-05-12T03:55:30.590Z,96985.03
2023-05-12T03:56:32.134Z,96988.03
2023-05-12T03:57:36.424Z,96976.75
2023-05-12T03:58:38.088Z,96978.75
2023-05-12T03:59:39.679Z,96985.25
2023-05-12T04:00:41.325Z,96980.81
2023-05-12T04:01:43.100Z,96985.25
2023-05-12T04:02:44.789Z,96982.78
2023-05-12T04:03:46.707Z,96985.03
2023-05-12T04:04:48.290Z,96983.47
2023-05-12T04:05:49.805Z,96985.25
2023-05-12T04:06:51.415Z,96992.06
2023-05-12T04:07:52.935Z,96991.16
2023-05-12T04:08:54.600Z,96988.56
2023-05-12T04:09:56.218Z,96987.84
2023-05-12T04:10:59.442Z,96988.38
2023-05-12T04:12:01.073Z,96988.91
2023-05-12T04:13:02.889Z,96987.81
2023-05-12T04:14:04.658Z,96991.13
2023-05-12T04:15:06.673Z,96995.84
2023-05-12T04:16:08.322Z,96994.78
2023-05-12T04:17:09.981Z,96999.19
2023-05-12T04:18:11.679Z,96993.09
2023-05-12T04:19:13.304Z,96996.94
2023-05-12T04:20:14.948Z,96998.03
2023-05-12T04:21:16.655Z,96998.75
2023-05-12T04:22:18.246Z,96999.53
2023-05-12T04:23:19.977Z,96998.59
2023-05-12T04:24:21.508Z,96998.38
2023-05-12T04:25:23.070Z,97001.06
2023-05-12T04:26:24.588Z,97003.06
2023-05-12T04:27:26.166Z,96997.03
2023-05-12T04:28:27.683Z,97001.06
2023-05-12T04:29:29.431Z,97000.47
2023-05-12T04:30:30.979Z,97000.69
2023-05-12T04:31:32.659Z,97003.38
2023-05-12T04:32:34.419Z,97001.91
2023-05-12T04:33:36.024Z,97006.94
2023-05-12T04:34:37.633Z,97001.47
2023-05-12T04:35:39.309Z,97011.31
2023-05-12T04:36:40.885Z,97009.84
2023-05-12T04:37:42.494Z,97004.59
2023-05-12T04:38:44.034Z,97001.28
2023-05-12T04:39:45.589Z,97001.13
2023-05-12T04:40:47.150Z,97008.28
2023-05-12T04:41:48.850Z,97008.63
2023-05-12T04:42:50.458Z,97011.97
2023-05-12T04:44:56.716Z,97010.63
2023-05-12T04:46:00.028Z,97009.84
2023-05-12T04:47:01.846Z,97002.69
2023-05-12T04:48:03.532Z,97010.41
2023-05-12T04:49:05.156Z,97005.47
2023-05-12T04:50:07.368Z,97008.28
2023-05-12T04:51:09.291Z,97011.44
2023-05-12T04:52:10.850Z,97012.88
2023-05-12T04:53:13.124Z,96999.91
2023-05-12T04:54:14.771Z,97015.31
2023-05-12T04:55:16.585Z,97005.72
2023-05-12T04:56:18.179Z,97005.72
2023-05-12T04:57:19.750Z,97008.16
2023-05-12T04:58:21.629Z,97009.28
2023-05-12T04:59:23.207Z,97010.94
2023-05-12T05:00:25.164Z,97014.63
2023-05-12T05:01:26.939Z,97010.25
2023-05-12T05:02:28.647Z,97006.19
2023-05-12T05:03:30.419Z,97011.69
2023-05-12T05:04:32.066Z,97010.34
2023-05-12T05:05:33.795Z,97013.63
2023-05-12T05:06:35.451Z,97017.13
2023-05-12T05:07:37.242Z,97011.31
2023-05-12T05:08:38.832Z,97005.38
2023-05-12T05:09:40.437Z,97012.53
2023-05-12T05:10:41.956Z,97017.59
2023-05-12T05:11:43.480Z,97019.47
2023-05-12T05:12:44.995Z,97013.31
2023-05-12T05:13:46.580Z,97011.53
2023-05-12T05:14:48.123Z,97003.03
2023-05-12T05:15:53.656Z,97007.59
2023-05-12T05:16:55.343Z,97014.88
2023-05-12T05:17:56.976Z,97006.38
2023-05-12T05:18:58.846Z,97011.19
2023-05-12T05:20:00.496Z,97003.44
2023-05-12T05:21:02.407Z,97007.28
2023-05-12T05:22:05.032Z,97004.94
2023-05-12T05:23:07.189Z,97003.81
2023-05-12T05:24:09.292Z,97010.63
2023-05-12T05:25:11.258Z,97005.53
2023-05-12T05:26:12.955Z,97007.56
2023-05-12T05:27:14.496Z,97010.13
2023-05-12T05:28:16.988Z,97016.50
2023-05-12T05:29:18.746Z,97017.41
2023-05-12T05:30:20.798Z,97011.09
2023-05-12T05:31:23.180Z,97019.72
2023-05-12T05:32:24.864Z,97020.28
2023-05-12T05:33:26.439Z,97017.03
2023-05-12T05:34:28.139Z,97018.72
2023-05-12T05:35:31.356Z,97019.59
2023-05-12T05:36:33.937Z,97018.38
2023-05-12T05:37:35.533Z,97019.28
2023-05-12T05:38:37.106Z,97025.09
2023-05-12T05:39:38.807Z,97022.84
2023-05-12T05:40:52.151Z,97014.44
2023-05-12T05:41:56.161Z,97022.50
2023-05-12T05:42:57.767Z,97013.00
2023-05-12T05:43:59.284Z,97017.13
2023-05-12T05:45:00.948Z,97021.13
2023-05-12T05:46:02.549Z,97018.31
2023-05-12T05:47:04.329Z,97021.09
2023-05-12T05:48:06.814Z,97026.06
2023-05-12T05:49:08.512Z,97022.22
2023-05-12T05:50:10.297Z,97023.13
2023-05-12T05:51:11.811Z,97023.63
2023-05-12T05:52:13.424Z,97021.41
2023-05-12T05:53:15.367Z,97020.38
2023-05-12T05:54:17.090Z,97025.84
2023-05-12T05:55:19.245Z,97021.00
2023-05-12T05:56:21.338Z,97019.22
2023-05-12T05:57:22.997Z,97024.25
2023-05-12T05:58:24.583Z,97024.97
2023-05-12T05:59:26.121Z,97017.28
2023-05-12T06:00:27.802Z,97023.69
2023-05-12T06:01:29.362Z,97019.88
2023-05-12T06:02:33.274Z,97024.00
2023-05-12T06:03:35.048Z,97016.47
2023-05-12T06:04:36.672Z,97019.25
2023-05-12T06:05:42.277Z,97024.19
2023-05-12T06:06:44.291Z,97024.41
2023-05-12T06:07:45.835Z,97019.22
2023-05-12T06:08:47.469Z,97023.22
2023-05-12T06:09:49.031Z,97019.63
2023-05-12T06:10:50.792Z,97020.59
2023-05-12T06:11:52.424Z,97022.94
2023-05-12T06:12:53.962Z,97025.84
2023-05-12T06:13:55.561Z,97025.59
2023-05-12T06:14:57.228Z,97020.00
2023-05-12T06:15:58.737Z,97022.91
2023-05-12T06:17:00.390Z,97028.44
2023-05-12T06:18:02.125Z,97029.34
2023-05-12T06:19:03.726Z,97025.63
2023-05-12T06:20:06.748Z,97022.22
2023-05-12T06:21:08.522Z,97027.53
2023-05-12T06:22:10.066Z,97034.47
2023-05-12T06:23:11.853Z,97029.59
2023-05-12T06:24:13.441Z,97033.28
2023-05-12T06:25:15.078Z,97028.22
2023-05-12T06:26:17.443Z,97032.28
2023-05-12T06:27:19.237Z,97033.97
2023-05-12T06:28:20.789Z,97033.19
2023-05-12T06:29:22.658Z,97033.97
2023-05-12T06:30:24.272Z,97040.63
2023-05-12T06:31:25.871Z,97035.84
2023-05-12T06:32:27.479Z,97041.41
2023-05-12T06:33:29.020Z,97038.91
2023-05-12T06:34:30.669Z,97040.66
2023-05-12T06:35:32.241Z,97042.66
2023-05-12T06:36:33.760Z,97038.06
2023-05-12T06:37:35.547Z,97039.72
2023-05-12T06:38:37.122Z,97035.91
2023-05-12T06:39:38.643Z,97040.13
2023-05-12T06:40:40.276Z,97039.53
2023-05-12T06:41:41.952Z,97033.34
2023-05-12T06:42:44.168Z,97034.25
2023-05-12T06:43:45.967Z,97038.84
2023-05-12T06:44:47.517Z,97035.72
2023-05-12T06:45:49.177Z,97035.09
2023-05-12T06:46:50.761Z,97035.72
2023-05-12T06:47:52.503Z,97039.34
2023-05-12T06:48:55.628Z,97039.97
2023-05-12T06:49:57.199Z,97037.00
2023-05-12T06:50:58.811Z,97033.69
2023-05-12T06:52:00.546Z,97037.59
2023-05-12T06:53:02.383Z,97030.72
2023-05-12T06:54:03.939Z,97033.25
2023-05-12T06:55:05.896Z,97031.69
2023-05-12T06:56:07.785Z,97031.59
2023-05-12T06:57:09.942Z,97036.81
2023-05-12T06:58:11.494Z,97039.59
2023-05-12T06:59:13.433Z,97033.97
2023-05-12T07:00:15.362Z,97035.72
2023-05-12T07:01:17.083Z,97035.84
2023-05-12T07:02:18.685Z,97035.78
2023-05-12T07:03:20.260Z,97039.59
2023-05-12T07:04:22.726Z,97038.13
2023-05-12T07:05:24.715Z,97035.72
2023-05-12T07:06:29.393Z,97038.16
2023-05-12T07:07:31.195Z,97042.31
2023-05-12T07:08:32.859Z,97035.53
2023-05-12T07:09:34.454Z,97039.47
2023-05-12T07:10:36.059Z,97042.66
2023-05-12T07:11:37.641Z,97035.84
2023-05-12T07:12:39.386Z,97034.47
2023-05-12T07:13:40.950Z,97032.72
2023-05-12T07:14:42.473Z,97032.47
2023-05-12T07:15:44.011Z,97035.56
2023-05-12T07:16:45.637Z,97029.44
2023-05-12T07:17:47.478Z,97030.44
2023-05-12T07:18:49.082Z,97033.53
2023-05-12T07:19:51.749Z,97033.88
2023-05-12T07:20:53.401Z,97038.84
2023-05-12T07:21:54.956Z,97041.38
2023-05-12T07:22:56.949Z,97032.16
2023-05-12T07:23:59.308Z,97031.72
2023-05-12T07:25:01.108Z,97031.72
2023-05-12T07:26:04.084Z,97022.38
2023-05-12T07:27:06.226Z,97025.69
2023-05-12T07:28:07.991Z,97027.94
2023-05-12T07:29:12.872Z,97021.81
2023-05-12T07:30:15.419Z,97022.00
2023-05-12T07:31:17.225Z,97024.16
2023-05-12T07:32:18.935Z,97019.84
2023-05-12T07:33:20.700Z,97024.03
2023-05-12T07:34:22.318Z,97021.75
2023-05-12T07:35:24.231Z,97022.69
2023-05-12T07:36:25.773Z,97024.50
2023-05-12T07:37:27.388Z,97023.94
2023-05-12T07:38:29.089Z,97015.59
2023-05-12T07:39:32.343Z,97014.81
2023-05-12T07:40:34.563Z,97023.19
2023-05-12T07:41:36.133Z,97021.53
2023-05-12T07:42:37.765Z,97020.06
2023-05-12T07:43:39.349Z,97020.69
2023-05-12T07:44:41.391Z,97017.19
2023-05-12T07:45:43.582Z,97022.25
2023-05-12T07:46:45.528Z,97028.50
2023-05-12T07:47:47.126Z,97023.88
2023-05-12T07:48:48.775Z,97025.22
2023-05-12T07:49:50.295Z,97024.03
2023-05-12T07:50:51.993Z,97019.00
2023-05-12T07:51:53.557Z,97015.06
2023-05-12T07:52:55.405Z,97018.78
2023-05-12T07:53:58.178Z,97022.59
2023-05-12T07:54:59.783Z,97027.06
2023-05-12T07:56:01.538Z,97011.56
2023-05-12T07:57:03.299Z,97023.03
2023-05-12T07:58:04.972Z,97027.72
2023-05-12T07:59:06.579Z,97026.81
2023-05-12T08:00:09.396Z,97028.97
2023-05-12T08:01:10.989Z,97029.69
2023-05-12T08:02:13.044Z,97034.06
2023-05-12T08:03:16.339Z,97033.50
2023-05-12T08:04:18.041Z,97026.00
2023-05-12T08:05:20.125Z,97030.53
2023-05-12T08:06:21.757Z,97025.56
2023-05-12T08:07:23.418Z,97026.09
2023-05-12T08:08:24.952Z,97027.66
2023-05-12T08:09:26.547Z,97024.91
2023-05-12T08:10:29.922Z,97021.00
2023-05-12T08:11:31.581Z,97026.47
2023-05-12T08:12:33.747Z,97026.81
2023-05-12T08:13:37.761Z,97024.81
2023-05-12T08:14:39.385Z,97031.00
2023-05-12T08:15:41.404Z,97028.31
2023-05-12T08:16:45.481Z,97021.28
2023-05-12T08:17:47.146Z,97018.44
2023-05-12T08:18:48.771Z,97012.09
2023-05-12T08:19:50.659Z,97017.13
2023-05-12T08:20:52.232Z,97017.84
2023-05-12T08:21:54.158Z,97011.28
2023-05-12T08:22:55.681Z,97011.41
2023-05-12T08:23:57.406Z,97015.19
2023-05-12T08:24:59.721Z,97014.97
2023-05-12T08:26:01.284Z,97011.84
2023-05-12T08:27:02.880Z,97020.38
2023-05-12T08:28:04.673Z,97012.56
2023-05-12T08:29:06.928Z,97019.53
2023-05-12T08:30:09.703Z,97022.53
2023-05-12T08:31:11.983Z,97018.66
2023-05-12T08:32:13.797Z,97017.66
2023-05-12T08:33:15.459Z,97019.75
2023-05-12T08:34:17.114Z,97023.31
2023-05-12T08:35:19.861Z,97014.06
2023-05-12T08:36:21.616Z,97014.84
2023-05-12T08:37:23.157Z,97020.13
2023-05-12T08:38:24.711Z,97015.38
2023-05-12T08:39:28.857Z,97019.16
2023-05-12T08:40:33.570Z,97015.31
2023-05-12T08:41:35.036Z,97013.09
2023-05-12T08:43:26.214Z,97013.94
2023-05-12T08:44:28.545Z,97016.34
2023-05-12T08:45:30.285Z,97012.13
2023-05-12T08:46:32.317Z,97016.44
2023-05-12T08:47:34.333Z,97010.81
2023-05-12T08:48:39.043Z,97011.28
2023-05-12T08:49:42.968Z,97011.72
2023-05-12T08:50:45.796Z,97012.44
2023-05-12T08:51:57.289Z,97021.84
2023-05-12T08:53:01.622Z,97018.28
2023-05-12T08:54:04.312Z,97016.56
2023-05-12T08:55:07.424Z,97015.56
2023-05-12T08:57:16.250Z,97016.81
2023-05-12T08:58:20.095Z,97012.19
2023-05-12T08:59:25.182Z,97015.53
2023-05-12T09:00:29.019Z,97024.41
2023-05-12T09:01:31.495Z,97014.22
2023-05-12T09:02:48.250Z,97011.00
2023-05-12T09:03:53.124Z,97017.53
2023-05-12T09:04:55.168Z,97011.47
2023-05-12T09:06:00.753Z,97015.19
2023-05-12T09:07:04.818Z,97013.38
2023-05-12T09:08:09.267Z,97015.09
2023-05-12T09:09:14.065Z,97010.66
2023-05-12T09:10:29.989Z,97006.75
2023-05-12T09:11:35.815Z,97010.28
2023-05-12T09:12:38.478Z,97006.50
2023-05-12T09:13:54.953Z,97004.50
2023-05-12T09:15:04.843Z,97006.69
2023-05-12T09:16:11.455Z,97008.81
2023-05-12T09:17:14.146Z,97002.66
2023-05-12T09:18:15.751Z,97001.78
2023-05-12T09:19:21.438Z,97010.38
2023-05-12T09:20:31.403Z,97005.69
2023-05-12T09:21:34.263Z,97002.63
2023-05-12T09:22:35.985Z,96989.75
2023-05-12T09:23:37.530Z,96998.78
2023-05-12T09:24:40.172Z,96999.50
2023-05-12T09:25:41.729Z,96998.16
2023-05-12T09:26:51.299Z,96994.38
2023-05-12T09:27:56.683Z,97000.09
2023-05-12T09:29:09.353Z,96997.53
2023-05-12T09:30:13.059Z,97003.63
2023-05-12T09:31:22.682Z,96997.13
2023-05-12T09:32:35.560Z,96997.69
2023-05-12T09:33:37.136Z,96999.66
2023-05-12T09:34:41.319Z,96993.41
2023-05-12T09:35:45.775Z,97004.28
2023-05-12T09:36:59.327Z,96995.16
2023-05-12T09:38:06.390Z,97000.75
2023-05-12T09:39:10.014Z,96992.75
2023-05-12T09:40:13.765Z,96994.63
2023-05-12T09:41:22.802Z,96994.72
2023-05-12T09:42:29.179Z,96997.34
2023-05-12T09:43:30.809Z,96994.47
2023-05-12T09:44:32.481Z,96998.88
2023-05-12T09:45:39.802Z,96994.09
2023-05-12T09:46:42.501Z,96991.78
2023-05-12T09:47:45.422Z,96995.69
2023-05-12T09:48:48.329Z,96996.63
2023-05-12T09:49:52.269Z,96993.25
2023-05-12T09:50:53.910Z,96998.38
2023-05-12T09:51:59.530Z,96990.69
2023-05-12T09:53:01.726Z,96994.53
2023-05-12T09:54:05.752Z,96997.44
2023-05-12T09:55:11.484Z,96992.03
2023-05-12T09:56:14.975Z,96998.81
2023-05-12T09:57:17.085Z,96986.56
2023-05-12T09:58:20.866Z,96986.28
2023-05-12T09:59:26.925Z,96983.66
2023-05-12T10:00:46.262Z,96978.63
2023-05-12T10:01:50.464Z,96980.25
2023-05-12T10:02:52.692Z,96983.00
2023-05-12T10:03:56.412Z,96982.66
2023-05-12T10:05:06.249Z,96975.72
2023-05-12T10:06:14.585Z,96976.41
2023-05-12T10:07:17.328Z,96970.81
2023-05-12T10:08:27.241Z,96976.31
2023-05-12T10:09:34.213Z,96974.84
2023-05-12T10:10:36.874Z,96975.72
2023-05-12T10:11:38.771Z,96975.72
2023-05-12T10:12:41.519Z,96977.53
2023-05-12T10:13:43.871Z,96974.47
2023-05-12T10:14:46.485Z,96971.03
2023-05-12T10:15:49.887Z,96966.41
2023-05-12T10:16:52.229Z,96971.06
2023-05-12T10:17:55.512Z,96972.63
2023-05-12T10:18:58.591Z,96967.28
2023-05-12T10:20:01.462Z,96971.22
2023-05-12T10:21:03.980Z,96964.25
2023-05-12T10:22:09.972Z,96968.50
2023-05-12T10:23:13.523Z,96963.56
2023-05-12T10:24:18.884Z,96957.41
2023-05-12T10:25:21.324Z,96967.00
2023-05-12T10:26:23.505Z,96958.00
2023-05-12T10:27:25.786Z,96960.34
2023-05-12T10:28:31.011Z,96962.00
2023-05-12T10:29:33.816Z,96956.63
2023-05-12T10:30:37.472Z,96954.34
2023-05-12T10:31:39.760Z,96955.91
2023-05-12T10:32:42.867Z,96953.66
2023-05-12T10:33:44.449Z,96957.16
2023-05-12T10:34:46.481Z,96952.13
2023-05-12T10:35:49.641Z,96950.22
2023-05-12T10:36:53.962Z,96951.41
2023-05-12T10:37:55.579Z,96947.50
2023-05-12T10:39:05.953Z,96951.38
2023-05-12T10:40:08.766Z,96945.94
2023-05-12T10:41:11.087Z,96956.03
2023-05-12T10:42:12.857Z,96950.63
2023-05-12T10:43:25.025Z,96954.91
2023-05-12T10:44:28.377Z,96950.56
2023-05-12T10:45:37.491Z,96952.91
2023-05-12T10:46:39.202Z,96954.41
2023-05-12T10:47:43.046Z,96952.00
2023-05-12T10:48:50.123Z,96950.13
2023-05-12T10:49:56.350Z,96945.50
2023-05-12T10:50:57.937Z,96949.84
2023-05-12T10:52:01.360Z,96949.19
2023-05-12T10:53:03.441Z,96948.13
2023-05-12T10:54:08.059Z,96944.31
2023-05-12T10:55:15.596Z,96952.81
2023-05-12T10:56:23.723Z,96940.38
2023-05-12T10:57:26.181Z,96941.94
2023-05-12T10:58:28.231Z,96949.00
2023-05-12T10:59:30.774Z,96948.25
2023-05-12T11:00:43.060Z,96946.97
2023-05-12T11:02:05.878Z,96945.78
2023-05-12T11:03:14.579Z,96950.47
2023-05-12T11:04:20.318Z,96951.56
2023-05-12T11:05:22.546Z,96960.03
2023-05-12T11:06:29.031Z,96947.13
2023-05-12T11:07:35.265Z,96952.41
2023-05-12T11:08:37.911Z,96946.75
2023-05-12T11:09:56.782Z,96954.47
2023-05-12T11:11:02.827Z,96947.63
2023-05-12T11:12:08.811Z,96951.69
2023-05-12T11:13:11.064Z,96949.88
2023-05-12T11:14:12.949Z,96952.28
2023-05-12T11:15:16.642Z,96959.72
2023-05-12T11:16:20.839Z,96957.06
2023-05-12T11:17:22.613Z,96955.16
2023-05-12T11:18:24.344Z,96959.03
2023-05-12T11:19:26.331Z,96953.59
2023-05-12T11:20:30.196Z,96956.50
2023-05-12T11:21:33.447Z,96957.59
2023-05-12T11:22:35.078Z,96960.16
2023-05-12T11:23:36.653Z,96955.41
2023-05-12T11:24:40.910Z,96958.47
2023-05-12T11:25:44.668Z,96953.81
2023-05-12T11:26:46.432Z,96960.19
2023-05-12T11:27:50.714Z,96949.81
2023-05-12T11:28:52.390Z,96955.72
2023-05-12T11:29:59.225Z,96961.25
2023-05-12T11:31:00.937Z,96956.63
2023-05-12T11:32:02.611Z,96957.47
2023-05-12T11:33:04.451Z,96954.38
2023-05-12T11:34:12.587Z,96959.81
2023-05-12T11:35:19.463Z,96962.91
2023-05-12T11:36:21.747Z,96965.25
2023-05-12T11:37:23.496Z,96966.03
2023-05-12T11:38:27.287Z,96962.97
2023-05-12T11:39:33.174Z,96969.94
2023-05-12T11:40:40.789Z,96968.28
2023-05-12T11:41:42.419Z,96971.06
2023-05-12T11:42:48.626Z,96963.19
2023-05-12T11:43:50.708Z,96967.94
2023-05-12T11:44:53.000Z,96965.72
2023-05-12T11:45:57.657Z,96961.91
2023-05-12T11:47:04.429Z,96962.00
2023-05-12T11:48:12.204Z,96962.84
2023-05-12T11:49:13.927Z,96966.72
2023-05-12T11:50:23.250Z,96956.53
2023-05-12T11:51:25.788Z,96957.22
2023-05-12T11:52:27.359Z,96959.88
2023-05-12T11:53:28.955Z,96958.53
2023-05-12T11:54:31.203Z,96956.97
2023-05-12T11:55:34.177Z,96961.63
2023-05-12T11:56:36.527Z,96959.63
2023-05-12T11:57:38.276Z,96958.38
2023-05-12T11:58:39.834Z,96959.50
2023-05-12T11:59:41.377Z,96957.16
2023-05-12T12:00:42.953Z,96958.28
2023-05-12T12:01:46.674Z,96962.97
2023-05-12T12:02:48.456Z,96961.03
2023-05-12T12:03:52.436Z,96955.31
2023-05-12T12:04:54.496Z,96956.56
2023-05-12T12:06:01.587Z,96967.91
2023-05-12T12:07:05.297Z,96959.38
2023-05-12T12:08:08.979Z,96950.13
2023-05-12T12:09:10.746Z,96958.31
2023-05-12T12:10:12.936Z,96960.69
2023-05-12T12:11:14.565Z,96961.47
2023-05-12T12:12:16.144Z,96964.22
2023-05-12T12:13:22.671Z,96959.19
2023-05-12T12:14:24.947Z,96963.06
2023-05-12T12:15:26.649Z,96960.91
2023-05-12T12:16:29.899Z,96965.53
2023-05-12T12:17:31.594Z,96966.25
2023-05-12T12:18:33.169Z,96960.41
2023-05-12T12:19:34.828Z,96966.19